createdAt,value
2019-06-07T00:00:55.139Z,16.21
2019-06-07T00:02:00.206Z,16.19
2019-06-07T00:03:09.234Z,16.19
2019-06-07T00:04:14.165Z,16.17
2019-06-07T00:05:19.998Z,16.17
2019-06-07T00:06:26.020Z,16.16
2019-06-07T00:07:31.517Z,16.15
2019-06-07T00:08:36.349Z,16.15
2019-06-07T00:09:40.581Z,16.15
2019-06-07T00:10:45.405Z,16.12
2019-06-07T00:11:49.599Z,16.10
2019-06-07T00:12:54.675Z,16.10
2019-06-07T00:13:59.935Z,16.09
2019-06-07T00:15:11.638Z,16.09
2019-06-07T00:16:14.953Z,16.06
2019-06-07T00:17:20.528Z,16.05
2019-06-07T00:18:26.127Z,16.00
2019-06-07T00:19:31.139Z,16.00
2019-06-07T00:20:35.337Z,15.99
2019-06-07T00:22:13.724Z,15.97
2019-06-07T00:22:46.149Z,15.92
2019-06-07T00:23:50.932Z,15.92
2019-06-07T00:24:55.128Z,15.89
2019-06-07T00:25:59.938Z,15.85
2019-06-07T00:27:05.112Z,15.84
2019-06-07T00:28:10.707Z,15.82
2019-06-07T00:29:17.308Z,15.80
2019-06-07T00:30:50.515Z,15.80
2019-06-07T00:31:28.149Z,15.81
2019-06-07T00:32:33.168Z,15.79
2019-06-07T00:33:37.364Z,15.57
2019-06-07T00:34:42.148Z,15.73
2019-06-07T00:35:46.341Z,15.70
2019-06-07T00:36:51.120Z,15.72
2019-06-07T00:37:55.445Z,15.71
2019-06-07T00:39:00.255Z,15.71
2019-06-07T00:40:17.824Z,15.70
2019-06-07T00:41:12.553Z,15.70
2019-06-07T00:42:20.573Z,15.71
2019-06-07T00:43:28.151Z,15.70
2019-06-07T00:44:29.337Z,15.71
2019-06-07T00:45:34.104Z,15.71
2019-06-07T00:46:38.301Z,15.70
2019-06-07T00:47:44.157Z,15.71
2019-06-07T00:48:48.540Z,15.71
2019-06-07T00:49:53.323Z,15.71
2019-06-07T00:50:57.565Z,15.70
2019-06-07T00:52:02.360Z,15.69
2019-06-07T00:53:18.248Z,15.70
2019-06-07T00:54:17.085Z,15.68
2019-06-07T00:55:22.233Z,15.68
2019-06-07T00:56:26.068Z,15.67
2019-06-07T00:57:30.285Z,15.67
2019-06-07T00:58:35.073Z,15.66
2019-06-07T00:59:39.358Z,15.65
2019-06-07T01:00:44.224Z,15.65
2019-06-07T01:01:48.423Z,15.64
2019-06-07T01:02:53.198Z,15.62
2019-06-07T01:03:57.394Z,15.60
2019-06-07T01:05:02.231Z,15.59
2019-06-07T01:06:07.879Z,15.57
2019-06-07T01:07:13.217Z,15.57
2019-06-07T01:08:19.941Z,15.54
2019-06-07T01:09:25.493Z,15.52
2019-06-07T01:10:52.465Z,15.51
2019-06-07T01:11:36.625Z,15.50
2019-06-07T01:12:42.159Z,15.44
2019-06-07T01:13:48.021Z,15.45
2019-06-07T01:14:52.224Z,15.43
2019-06-07T01:15:57.070Z,15.40
2019-06-07T01:17:27.606Z,15.40
2019-06-07T01:18:42.890Z,15.34
2019-06-07T01:19:27.643Z,15.31
2019-06-07T01:20:32.534Z,15.30
2019-06-07T01:21:36.756Z,15.25
2019-06-07T01:22:41.563Z,15.23
2019-06-07T01:24:07.935Z,15.22
2019-06-07T01:24:52.321Z,15.21
2019-06-07T01:25:56.538Z,15.19
2019-06-07T01:27:01.368Z,15.19
2019-06-07T01:28:06.733Z,15.17
2019-06-07T01:29:11.541Z,15.13
2019-06-07T01:30:16.227Z,15.08
2019-06-07T01:31:24.423Z,15.06
2019-06-07T01:32:31.415Z,15.03
2019-06-07T01:33:50.196Z,14.98
2019-06-07T01:34:39.668Z,14.96
2019-06-07T01:35:44.627Z,14.93
2019-06-07T01:36:48.796Z,14.92
2019-06-07T01:37:53.606Z,14.92
2019-06-07T01:38:57.828Z,14.94
2019-06-07T01:40:02.860Z,14.93
2019-06-07T01:41:07.058Z,14.94
2019-06-07T01:42:12.034Z,14.93
2019-06-07T01:43:17.004Z,14.93
2019-06-07T01:44:24.204Z,14.93
2019-06-07T01:45:30.921Z,14.92
2019-06-07T01:46:34.469Z,14.88
2019-06-07T01:47:38.724Z,14.88
2019-06-07T01:48:49.608Z,14.82
2019-06-07T01:49:50.356Z,14.87
2019-06-07T01:50:55.137Z,14.83
2019-06-07T01:51:59.516Z,14.84
2019-06-07T01:53:04.288Z,14.84
2019-06-07T01:55:15.143Z,14.79
2019-06-07T01:56:20.496Z,14.77
2019-06-07T01:57:38.425Z,14.76
2019-06-07T01:58:33.156Z,14.77
2019-06-07T01:59:37.946Z,14.77
2019-06-07T02:00:42.600Z,14.77
2019-06-07T02:01:47.437Z,14.78
2019-06-07T02:02:51.721Z,14.78
2019-06-07T02:03:56.657Z,14.77
2019-06-07T02:05:01.036Z,14.76
2019-06-07T02:06:05.820Z,14.75
2019-06-07T02:07:10.068Z,14.73
2019-06-07T02:08:14.855Z,14.73
2019-06-07T02:09:20.845Z,14.72
2019-06-07T02:10:30.288Z,14.73
2019-06-07T02:11:33.504Z,14.74
2019-06-07T02:12:43.178Z,14.75
2019-06-07T02:13:44.440Z,14.75
2019-06-07T02:14:49.257Z,14.77
2019-06-07T02:15:53.556Z,14.77
2019-06-07T02:16:58.359Z,14.80
2019-06-07T02:18:02.659Z,14.79
2019-06-07T02:19:07.551Z,14.79
2019-06-07T02:20:12.484Z,14.78
2019-06-07T02:21:17.271Z,14.80
2019-06-07T02:22:23.630Z,14.79
2019-06-07T02:23:31.107Z,14.80
2019-06-07T02:24:35.929Z,14.80
2019-06-07T02:25:48.443Z,14.80
2019-06-07T02:26:46.455Z,14.80
2019-06-07T02:27:51.305Z,14.79
2019-06-07T02:28:55.514Z,14.78
2019-06-07T02:30:00.343Z,14.79
2019-06-07T02:31:05.125Z,14.79
2019-06-07T02:32:09.911Z,14.79
2019-06-07T02:33:14.434Z,14.77
2019-06-07T02:34:19.214Z,14.77
2019-06-07T02:35:26.394Z,14.76
2019-06-07T02:36:36.566Z,14.76
2019-06-07T02:37:36.933Z,14.76
2019-06-07T02:38:43.366Z,14.74
2019-06-07T02:39:47.699Z,14.72
2019-06-07T02:40:52.495Z,14.71
2019-06-07T02:41:56.898Z,14.71
2019-06-07T02:43:01.640Z,14.69
2019-06-07T02:44:05.839Z,14.70
2019-06-07T02:45:11.179Z,14.66
2019-06-07T02:46:34.176Z,14.63
2019-06-07T02:47:35.983Z,14.61
2019-06-07T02:48:40.208Z,14.61
2019-06-07T02:49:44.915Z,14.60
2019-06-07T02:50:50.032Z,14.60
2019-06-07T02:51:54.888Z,14.59
2019-06-07T02:52:59.040Z,14.59
2019-06-07T02:54:03.888Z,14.58
2019-06-07T02:55:08.090Z,14.58
2019-06-07T02:56:37.462Z,14.57
2019-06-07T02:57:18.788Z,14.56
2019-06-07T02:58:26.149Z,14.55
2019-06-07T02:59:59.623Z,14.53
2019-06-07T03:01:00.543Z,14.52
2019-06-07T03:01:49.648Z,14.52
2019-06-07T03:02:54.427Z,14.45
2019-06-07T03:03:58.834Z,14.44
2019-06-07T03:05:06.916Z,14.42
2019-06-07T03:06:13.650Z,14.41
2019-06-07T03:07:18.420Z,14.38
2019-06-07T03:08:22.719Z,14.35
2019-06-07T03:09:30.845Z,14.34
2019-06-07T03:10:34.718Z,14.35
2019-06-07T03:11:41.612Z,14.35
2019-06-07T03:12:46.039Z,14.36
2019-06-07T03:13:50.825Z,14.34
2019-06-07T03:14:55.020Z,14.36
2019-06-07T03:16:01.342Z,14.38
2019-06-07T03:17:16.799Z,14.38
2019-06-07T03:18:41.611Z,14.35
2019-06-07T03:19:49.612Z,14.37
2019-06-07T03:21:04.894Z,14.38
2019-06-07T03:22:00.306Z,14.38
2019-06-07T03:23:05.434Z,14.40
2019-06-07T03:24:09.833Z,14.41
2019-06-07T03:25:14.609Z,14.44
2019-06-07T03:26:18.871Z,14.45
2019-06-07T03:27:35.114Z,14.47
2019-06-07T03:28:30.847Z,14.50
2019-06-07T03:29:36.648Z,14.52
2019-06-07T03:30:58.144Z,14.53
2019-06-07T03:31:48.354Z,14.55
2019-06-07T03:32:52.687Z,14.54
2019-06-07T03:33:57.466Z,14.57
2019-06-07T03:35:01.662Z,14.60
2019-06-07T03:36:23.308Z,14.61
2019-06-07T03:37:13.415Z,14.63
2019-06-07T03:38:18.219Z,14.64
2019-06-07T03:39:22.472Z,14.64
2019-06-07T03:40:27.194Z,14.65
2019-06-07T03:41:36.949Z,14.64
2019-06-07T03:42:39.767Z,14.65
2019-06-07T03:43:43.848Z,14.66
2019-06-07T03:44:48.807Z,14.67
2019-06-07T03:45:53.074Z,14.69
2019-06-07T03:46:57.851Z,14.70
2019-06-07T03:48:02.047Z,14.70
2019-06-07T03:49:06.907Z,14.71
2019-06-07T03:50:11.190Z,14.71
2019-06-07T03:51:26.895Z,14.72
2019-06-07T03:52:22.933Z,14.72
2019-06-07T03:53:30.464Z,14.73
2019-06-07T03:54:36.883Z,14.75
2019-06-07T03:55:41.251Z,14.72
2019-06-07T03:56:46.045Z,14.72
2019-06-07T03:58:56.731Z,14.73
2019-06-07T04:00:01.867Z,14.75
2019-06-07T04:01:06.134Z,14.76
2019-06-07T04:02:10.941Z,14.77
2019-06-07T04:03:32.849Z,14.78
2019-06-07T04:04:21.705Z,14.79
2019-06-07T04:05:25.973Z,14.81
2019-06-07T04:06:34.022Z,14.83
2019-06-07T04:07:43.755Z,14.80
2019-06-07T04:08:44.241Z,14.84
2019-06-07T04:09:48.799Z,14.84
2019-06-07T04:11:00.307Z,14.86
2019-06-07T04:11:59.624Z,14.87
2019-06-07T04:13:04.909Z,14.88
2019-06-07T04:14:09.160Z,14.88
2019-06-07T04:15:13.896Z,14.92
2019-06-07T04:16:18.093Z,14.92
2019-06-07T04:17:22.877Z,14.93
2019-06-07T04:18:28.146Z,14.91
2019-06-07T04:19:38.222Z,14.91
2019-06-07T04:20:41.313Z,14.92
2019-06-07T04:21:45.550Z,14.91
2019-06-07T04:22:49.798Z,14.93
2019-06-07T04:23:54.600Z,14.95
2019-06-07T04:24:58.796Z,14.96
2019-06-07T04:26:03.715Z,14.98
2019-06-07T04:27:07.910Z,14.99
2019-06-07T04:28:12.857Z,15.03
2019-06-07T04:29:47.325Z,15.04
2019-06-07T04:30:42.322Z,15.06
2019-06-07T04:31:46.581Z,15.06
2019-06-07T04:32:51.729Z,15.03
2019-06-07T04:33:55.935Z,15.03
2019-06-07T04:35:00.725Z,15.03
2019-06-07T04:36:04.915Z,15.03
2019-06-07T04:37:10.379Z,15.05
2019-06-07T04:38:15.170Z,15.01
2019-06-07T04:39:19.968Z,15.08
2019-06-07T04:40:24.169Z,15.10
2019-06-07T04:41:28.949Z,15.10
2019-06-07T04:42:36.527Z,15.05
2019-06-07T04:43:41.146Z,15.03
2019-06-07T04:44:46.009Z,15.05
2019-06-07T04:45:51.707Z,15.08
2019-06-07T04:46:57.816Z,15.07
2019-06-07T04:48:03.360Z,15.08
2019-06-07T04:49:07.644Z,15.08
2019-06-07T04:50:12.676Z,15.10
2019-06-07T04:51:16.950Z,15.12
2019-06-07T04:52:21.756Z,15.16
2019-06-07T04:53:25.992Z,15.18
2019-06-07T04:54:32.830Z,15.20
2019-06-07T04:55:39.616Z,15.21
2019-06-07T04:56:44.712Z,15.23
2019-06-07T04:57:50.763Z,15.25
2019-06-07T04:58:55.768Z,15.26
2019-06-07T05:00:22.235Z,15.29
2019-06-07T05:01:25.378Z,15.30
2019-06-07T05:02:12.425Z,15.30
2019-06-07T05:03:17.213Z,15.31
2019-06-07T05:04:21.508Z,15.33
2019-06-07T05:05:26.530Z,15.35
2019-06-07T05:06:34.836Z,15.37
2019-06-07T05:07:39.988Z,15.39
2019-06-07T05:08:43.927Z,15.40
2019-06-07T05:09:48.860Z,15.41
2019-06-07T05:10:53.096Z,15.43
2019-06-07T05:11:57.878Z,15.45
2019-06-07T05:13:02.076Z,15.48
2019-06-07T05:14:06.856Z,15.50
2019-06-07T05:15:11.050Z,15.52
2019-06-07T05:16:15.756Z,15.54
2019-06-07T05:17:19.964Z,15.57
2019-06-07T05:18:24.749Z,15.52
2019-06-07T05:19:30.590Z,15.54
2019-06-07T05:20:37.861Z,15.54
2019-06-07T05:22:02.101Z,15.51
2019-06-07T05:22:48.764Z,15.51
2019-06-07T05:24:06.384Z,15.54
2019-06-07T05:24:59.509Z,15.54
2019-06-07T05:26:04.534Z,15.55
2019-06-07T05:27:09.314Z,15.60
2019-06-07T05:28:13.536Z,15.63
2019-06-07T05:29:18.327Z,15.62
2019-06-07T05:31:44.942Z,15.63
2019-06-07T05:32:47.612Z,15.65
2019-06-07T05:33:53.356Z,15.60
2019-06-07T05:34:57.570Z,15.64
2019-06-07T05:36:02.545Z,15.68
2019-06-07T05:37:11.891Z,15.70
2019-06-07T05:38:12.988Z,15.71
2019-06-07T05:39:17.192Z,15.74
2019-06-07T05:40:39.453Z,15.73
2019-06-07T05:41:44.337Z,15.80
2019-06-07T05:42:49.336Z,15.84
2019-06-07T05:44:11.727Z,15.90
2019-06-07T05:44:59.944Z,15.90
2019-06-07T05:46:04.992Z,15.95
2019-06-07T05:47:09.833Z,15.99
2019-06-07T05:48:14.155Z,16.03
2019-06-07T05:49:19.060Z,16.09
2019-06-07T05:50:39.240Z,16.03
2019-06-07T05:51:29.850Z,16.12
2019-06-07T05:52:39.496Z,16.17
2019-06-07T05:53:43.141Z,16.19
2019-06-07T05:54:47.818Z,16.24
2019-06-07T05:55:52.598Z,16.29
2019-06-07T05:56:56.800Z,16.33
2019-06-07T05:58:01.715Z,16.36
2019-06-07T05:59:05.999Z,16.40
2019-06-07T06:00:10.779Z,16.41
2019-06-07T06:01:42.261Z,16.46
2019-06-07T06:02:22.985Z,16.50
2019-06-07T06:03:27.409Z,16.49
2019-06-07T06:04:33.746Z,16.49
2019-06-07T06:05:44.977Z,16.53
2019-06-07T06:06:47.368Z,16.59
2019-06-07T06:07:51.539Z,16.62
2019-06-07T06:09:12.939Z,16.65
2019-06-07T06:10:02.270Z,16.68
2019-06-07T06:11:08.409Z,16.72
2019-06-07T06:12:12.612Z,16.74
2019-06-07T06:13:17.422Z,16.79
2019-06-07T06:14:21.691Z,16.80
2019-06-07T06:15:41.472Z,16.84
2019-06-07T06:16:32.466Z,16.85
2019-06-07T06:17:40.897Z,16.91
2019-06-07T06:18:47.063Z,16.92
2019-06-07T06:19:53.221Z,16.96
2019-06-07T06:21:15.517Z,17.01
2019-06-07T06:22:02.051Z,17.04
2019-06-07T06:23:06.226Z,17.09
2019-06-07T06:24:10.999Z,17.10
2019-06-07T06:25:33.587Z,17.14
2019-06-07T06:26:21.782Z,17.18
2019-06-07T06:28:03.396Z,17.19
2019-06-07T06:28:32.601Z,17.24
2019-06-07T06:29:39.890Z,17.29
2019-06-07T06:30:47.009Z,17.32
2019-06-07T06:32:40.017Z,17.35
2019-06-07T06:32:58.542Z,17.40
2019-06-07T06:34:01.892Z,17.38
2019-06-07T06:35:08.291Z,17.41
2019-06-07T06:36:12.547Z,17.41
2019-06-07T06:37:17.390Z,17.44
2019-06-07T06:38:22.647Z,17.47
2019-06-07T06:39:27.420Z,17.50
2019-06-07T06:40:31.633Z,17.52
2019-06-07T06:41:50.686Z,17.54
2019-06-07T06:42:45.541Z,17.55
2019-06-07T06:43:52.579Z,17.57
2019-06-07T06:44:55.882Z,17.56
2019-06-07T06:46:00.734Z,17.59
2019-06-07T06:47:04.915Z,17.56
2019-06-07T06:48:09.724Z,17.57
2019-06-07T06:49:13.906Z,17.55
2019-06-07T06:50:18.857Z,17.57
2019-06-07T06:51:23.034Z,17.60
2019-06-07T06:52:27.822Z,17.63
2019-06-07T06:53:32.015Z,17.65
2019-06-07T06:54:43.186Z,17.64
2019-06-07T06:55:43.967Z,17.68
2019-06-07T06:56:50.349Z,17.72
2019-06-07T06:57:56.434Z,17.75
2019-06-07T06:59:34.119Z,17.76
2019-06-07T07:00:07.710Z,17.80
2019-06-07T07:01:12.712Z,17.81
2019-06-07T07:02:16.965Z,17.82
2019-06-07T07:03:55.439Z,17.82
2019-06-07T07:04:28.078Z,17.85
2019-06-07T07:05:32.817Z,17.86
2019-06-07T07:06:37.218Z,17.89
2019-06-07T07:07:42.691Z,17.93
2019-06-07T07:08:47.886Z,17.96
2019-06-07T07:09:58.738Z,17.99
2019-06-07T07:10:59.445Z,17.98
2019-06-07T07:12:11.714Z,18.04
2019-06-07T07:13:11.728Z,18.08
2019-06-07T07:14:16.677Z,18.11
2019-06-07T07:15:20.874Z,18.15
2019-06-07T07:16:25.638Z,18.19
2019-06-07T07:17:47.748Z,18.23
2019-06-07T07:18:36.669Z,18.29
2019-06-07T07:19:42.579Z,18.32
2019-06-07T07:20:49.904Z,18.37
2019-06-07T07:21:55.306Z,18.42
2019-06-07T07:23:00.795Z,18.46
2019-06-07T07:24:20.912Z,18.50
2019-06-07T07:25:11.743Z,18.52
2019-06-07T07:26:15.944Z,18.57
2019-06-07T07:27:20.783Z,18.59
2019-06-07T07:28:24.994Z,18.62
2019-06-07T07:29:29.786Z,18.63
2019-06-07T07:30:47.398Z,18.65
2019-06-07T07:31:56.132Z,18.65
2019-06-07T07:32:59.432Z,18.67
2019-06-07T07:35:10.288Z,18.72
2019-06-07T07:36:37.509Z,18.76
2019-06-07T07:37:21.134Z,18.81
2019-06-07T07:38:25.906Z,18.81
2019-06-07T07:39:30.161Z,18.86
2019-06-07T07:40:57.087Z,18.91
2019-06-07T07:41:40.938Z,18.97
2019-06-07T07:42:47.533Z,19.03
2019-06-07T07:44:04.302Z,19.08
2019-06-07T07:44:59.080Z,19.14
2019-06-07T07:46:28.005Z,19.20
2019-06-07T07:47:11.862Z,19.23
2019-06-07T07:48:18.584Z,19.28
2019-06-07T07:49:22.661Z,19.34
2019-06-07T07:50:27.010Z,19.35
2019-06-07T07:51:31.885Z,19.40
2019-06-07T07:52:36.054Z,19.43
2019-06-07T07:53:50.671Z,19.47
2019-06-07T07:54:46.862Z,19.53
2019-06-07T07:55:54.925Z,19.57
2019-06-07T07:56:57.547Z,19.62
2019-06-07T07:58:02.343Z,19.66
2019-06-07T07:59:08.150Z,19.69
2019-06-07T08:00:49.665Z,19.73
2019-06-07T08:01:19.414Z,19.76
2019-06-07T08:02:24.208Z,19.79
2019-06-07T08:03:29.451Z,19.81
2019-06-07T08:05:12.768Z,19.84
2019-06-07T08:05:43.351Z,19.87
2019-06-07T08:06:48.905Z,19.91
2019-06-07T08:07:56.524Z,19.94
2019-06-07T08:08:59.261Z,19.99
2019-06-07T08:10:05.282Z,20.03
2019-06-07T08:11:10.117Z,20.04
2019-06-07T08:12:14.344Z,20.06
2019-06-07T08:13:25.546Z,20.10
2019-06-07T08:14:24.986Z,20.11
2019-06-07T08:15:29.778Z,20.13
2019-06-07T08:16:33.941Z,20.18
2019-06-07T08:17:38.771Z,20.18
2019-06-07T08:18:43.014Z,20.19
2019-06-07T08:19:49.421Z,20.18
2019-06-07T08:21:20.440Z,20.18
2019-06-07T08:22:01.896Z,20.20
2019-06-07T08:23:06.173Z,20.23
2019-06-07T08:24:10.940Z,20.25
2019-06-07T08:25:15.116Z,20.27
2019-06-07T08:26:19.881Z,20.30
2019-06-07T08:27:26.264Z,20.35
2019-06-07T08:28:30.823Z,20.40
2019-06-07T08:29:44.756Z,20.45
2019-06-07T08:30:55.167Z,20.50
2019-06-07T08:31:48.315Z,20.51
2019-06-07T08:33:01.468Z,20.56
2019-06-07T08:34:00.817Z,20.58
2019-06-07T08:35:07.165Z,20.61
2019-06-07T08:36:19.976Z,20.64
2019-06-07T08:37:17.829Z,20.71
2019-06-07T08:38:27.596Z,20.73
2019-06-07T08:39:28.465Z,20.79
2019-06-07T08:40:32.661Z,20.84
2019-06-07T08:41:37.744Z,20.91
2019-06-07T08:43:04.479Z,20.96
2019-06-07T08:43:51.347Z,21.01
2019-06-07T08:45:01.249Z,21.06
2019-06-07T08:46:07.042Z,21.12
2019-06-07T08:47:19.748Z,21.20
2019-06-07T08:48:27.568Z,21.25
2019-06-07T08:49:20.137Z,21.29
2019-06-07T08:50:24.905Z,21.35
2019-06-07T08:51:29.085Z,21.40
2019-06-07T08:52:33.908Z,21.43
2019-06-07T08:53:38.881Z,21.45
2019-06-07T08:54:44.641Z,21.51
2019-06-07T08:55:48.842Z,21.57
2019-06-07T08:56:55.745Z,21.62
2019-06-07T08:58:04.198Z,21.65
2019-06-07T08:59:11.408Z,21.69
2019-06-07T09:00:43.124Z,21.73
2019-06-07T09:01:19.282Z,21.74
2019-06-07T09:02:25.679Z,21.78
2019-06-07T09:03:29.970Z,21.81
2019-06-07T09:04:34.149Z,21.86
2019-06-07T09:05:38.913Z,21.91
2019-06-07T09:08:07.092Z,22.00
2019-06-07T09:08:58.139Z,22.05
2019-06-07T09:10:09.337Z,22.07
2019-06-07T09:11:11.324Z,22.12
2019-06-07T09:12:14.856Z,22.15
2019-06-07T09:13:19.069Z,22.17
2019-06-07T09:14:23.871Z,22.23
2019-06-07T09:15:28.314Z,22.27
2019-06-07T09:16:33.078Z,22.32
2019-06-07T09:17:37.326Z,22.38
2019-06-07T09:18:44.785Z,22.43
2019-06-07T09:19:48.085Z,22.43
2019-06-07T09:20:53.673Z,22.43
2019-06-07T09:22:04.588Z,22.45
2019-06-07T09:23:11.567Z,22.45
2019-06-07T09:24:12.163Z,22.49
2019-06-07T09:25:21.867Z,22.55
2019-06-07T09:26:23.997Z,22.60
2019-06-07T09:27:28.768Z,22.68
2019-06-07T09:28:33.134Z,22.72
2019-06-07T09:29:37.899Z,22.76
2019-06-07T09:30:45.612Z,22.78
2019-06-07T09:31:53.150Z,22.79
2019-06-07T09:32:57.278Z,22.82
2019-06-07T09:34:08.640Z,22.86
2019-06-07T09:35:16.485Z,22.79
2019-06-07T09:36:15.240Z,22.88
2019-06-07T09:38:26.865Z,22.95
2019-06-07T09:39:31.341Z,22.99
2019-06-07T09:40:36.105Z,23.03
2019-06-07T09:41:49.287Z,23.07
2019-06-07T09:42:47.016Z,23.13
2019-06-07T09:44:04.725Z,23.19
2019-06-07T09:45:02.161Z,23.27
2019-06-07T09:46:11.210Z,23.30
2019-06-07T09:47:30.651Z,23.30
2019-06-07T09:49:08.416Z,23.31
2019-06-07T09:49:32.108Z,23.32
2019-06-07T09:50:29.972Z,23.37
2019-06-07T09:51:34.736Z,23.37
2019-06-07T09:52:57.357Z,23.38
2019-06-07T09:53:45.390Z,23.45
2019-06-07T09:55:22.236Z,23.51
2019-06-07T09:55:56.751Z,23.58
2019-06-07T09:57:05.321Z,23.64
2019-06-07T09:58:48.539Z,23.69
2019-06-07T09:59:14.429Z,23.76
2019-06-07T10:00:39.949Z,23.80
2019-06-07T10:01:25.699Z,23.87
2019-06-07T10:02:30.471Z,23.91
2019-06-07T10:03:34.649Z,24.01
2019-06-07T10:04:39.413Z,24.01
2019-06-07T10:05:44.568Z,24.06
2019-06-07T10:06:49.091Z,24.13
2019-06-07T10:08:09.725Z,24.17
2019-06-07T10:11:13.732Z,24.29
2019-06-07T10:12:17.952Z,24.34
2019-06-07T10:13:22.887Z,24.36
2019-06-07T10:14:27.067Z,24.42
2019-06-07T10:15:31.902Z,24.44
2019-06-07T10:16:46.301Z,24.49
2019-06-07T10:17:42.638Z,24.53
2019-06-07T10:18:46.944Z,24.57
2019-06-07T10:19:51.699Z,24.63
2019-06-07T10:20:55.949Z,24.69
2019-06-07T10:22:01.355Z,24.73
2019-06-07T10:23:05.860Z,24.77
2019-06-07T10:24:10.675Z,24.81
2019-06-07T10:25:14.943Z,24.83
2019-06-07T10:26:19.784Z,24.87
2019-06-07T10:27:23.971Z,24.90
2019-06-07T10:28:28.737Z,24.92
2019-06-07T10:29:32.933Z,24.96
2019-06-07T10:30:37.808Z,25.00
2019-06-07T10:31:41.989Z,25.04
2019-06-07T10:32:46.753Z,25.08
2019-06-07T10:33:50.934Z,25.12
2019-06-07T10:34:55.701Z,25.17
2019-06-07T10:36:00.336Z,25.21
2019-06-07T10:37:07.638Z,25.20
2019-06-07T10:38:10.934Z,25.20
2019-06-07T10:39:15.698Z,25.25
2019-06-07T10:40:20.222Z,25.29
2019-06-07T10:41:24.991Z,25.34
2019-06-07T10:42:29.164Z,25.37
2019-06-07T10:43:33.924Z,25.42
2019-06-07T10:44:38.108Z,25.45
2019-06-07T10:45:42.989Z,25.48
2019-06-07T10:46:47.178Z,25.52
2019-06-07T10:47:51.934Z,25.58
2019-06-07T10:48:56.183Z,25.63
2019-06-07T10:50:01.917Z,25.62
2019-06-07T10:51:06.462Z,25.77
2019-06-07T10:52:11.624Z,25.77
2019-06-07T10:53:17.371Z,25.81
2019-06-07T10:54:29.625Z,25.87
2019-06-07T10:55:28.986Z,25.91
2019-06-07T10:56:33.884Z,25.97
2019-06-07T10:57:38.064Z,26.03
2019-06-07T10:58:42.973Z,26.07
2019-06-07T10:59:47.149Z,26.10
2019-06-07T11:00:51.922Z,26.17
2019-06-07T11:01:56.278Z,26.19
2019-06-07T11:03:01.377Z,26.21
2019-06-07T11:04:05.800Z,26.23
2019-06-07T11:05:12.342Z,26.20
2019-06-07T11:06:16.642Z,26.26
2019-06-07T11:07:21.506Z,26.27
2019-06-07T11:08:26.637Z,26.30
2019-06-07T11:09:31.541Z,26.34
2019-06-07T11:10:35.697Z,26.30
2019-06-07T11:11:40.544Z,26.34
2019-06-07T11:12:44.748Z,26.39
2019-06-07T11:13:52.392Z,26.34
2019-06-07T11:14:55.426Z,26.34
2019-06-07T11:16:00.206Z,26.39
2019-06-07T11:17:05.144Z,26.49
2019-06-07T11:18:10.339Z,26.49
2019-06-07T11:19:17.784Z,26.53
2019-06-07T11:20:21.401Z,26.48
2019-06-07T11:21:25.782Z,26.48
2019-06-07T11:22:30.654Z,26.49
2019-06-07T11:23:34.829Z,26.47
2019-06-07T11:24:39.613Z,26.49
2019-06-07T11:25:43.801Z,26.49
2019-06-07T11:26:48.562Z,26.48
2019-06-07T11:27:52.741Z,26.53
2019-06-07T11:28:57.504Z,26.58
2019-06-07T11:30:01.705Z,26.60
2019-06-07T11:31:06.534Z,26.63
2019-06-07T11:32:10.783Z,26.67
2019-06-07T11:33:16.479Z,26.68
2019-06-07T11:34:20.809Z,26.76
2019-06-07T11:35:25.574Z,26.82
2019-06-07T11:36:29.860Z,26.86
2019-06-07T11:37:34.596Z,26.91
2019-06-07T11:38:38.853Z,26.97
2019-06-07T11:39:43.565Z,26.99
2019-06-07T11:40:47.758Z,27.07
2019-06-07T11:41:52.521Z,27.11
2019-06-07T11:42:56.701Z,27.16
2019-06-07T11:44:01.530Z,27.16
2019-06-07T11:45:07.938Z,27.18
2019-06-07T11:46:13.022Z,27.19
2019-06-07T11:47:18.450Z,27.22
2019-06-07T11:48:24.485Z,27.25
2019-06-07T11:49:28.634Z,27.25
2019-06-07T11:50:33.426Z,27.28
2019-06-07T11:51:37.608Z,27.31
2019-06-07T11:52:45.454Z,27.34
2019-06-07T11:53:48.251Z,27.39
2019-06-07T11:54:53.272Z,27.43
2019-06-07T11:55:57.493Z,27.40
2019-06-07T11:57:02.273Z,27.34
2019-06-07T11:58:11.105Z,27.42
2019-06-07T11:59:13.348Z,27.46
2019-06-07T12:00:19.193Z,27.49
2019-06-07T12:01:24.312Z,27.53
2019-06-07T12:02:28.501Z,27.56
2019-06-07T12:03:33.351Z,27.61
2019-06-07T12:04:37.515Z,27.66
2019-06-07T12:05:42.285Z,27.66
2019-06-07T12:06:46.745Z,27.69
2019-06-07T12:07:51.517Z,27.72
2019-06-07T12:08:55.691Z,27.73
2019-06-07T12:10:00.488Z,27.75
2019-06-07T12:11:04.661Z,27.79
2019-06-07T12:12:10.329Z,27.70
2019-06-07T12:13:15.574Z,27.66
2019-06-07T12:14:21.228Z,27.76
2019-06-07T12:15:25.401Z,27.77
2019-06-07T12:16:30.204Z,27.75
2019-06-07T12:17:34.434Z,27.82
2019-06-07T12:18:39.210Z,27.89
2019-06-07T12:19:43.385Z,27.93
2019-06-07T12:20:48.190Z,27.98
2019-06-07T12:21:52.398Z,28.03
2019-06-07T12:22:57.232Z,28.04
2019-06-07T12:24:01.433Z,28.03
2019-06-07T12:25:07.441Z,27.95
2019-06-07T12:26:12.278Z,27.80
2019-06-07T12:27:17.146Z,27.75
2019-06-07T12:28:21.399Z,27.74
2019-06-07T12:29:26.321Z,27.61
2019-06-07T12:30:30.560Z,27.66
2019-06-07T12:31:35.622Z,27.71
2019-06-07T12:32:39.803Z,27.75
2019-06-07T12:33:44.938Z,27.79
2019-06-07T12:34:49.213Z,27.72
2019-06-07T12:35:53.996Z,27.68
2019-06-07T12:36:58.193Z,27.67
2019-06-07T12:38:03.074Z,27.66
2019-06-07T12:39:07.953Z,27.70
2019-06-07T12:40:23.021Z,27.73
2019-06-07T12:41:18.831Z,27.78
2019-06-07T12:42:23.594Z,27.83
2019-06-07T12:43:27.846Z,27.84
2019-06-07T12:44:32.920Z,27.89
2019-06-07T12:45:45.232Z,27.95
2019-06-07T12:46:43.662Z,28.01
2019-06-07T12:47:48.876Z,28.08
2019-06-07T12:48:53.683Z,28.14
2019-06-07T12:49:57.930Z,28.20
2019-06-07T12:51:02.921Z,28.26
2019-06-07T12:52:07.099Z,28.31
2019-06-07T12:53:13.480Z,28.37
2019-06-07T12:54:17.801Z,28.41
2019-06-07T12:55:24.442Z,28.44
2019-06-07T12:56:28.566Z,28.48
2019-06-07T12:57:33.403Z,28.53
2019-06-07T12:58:39.533Z,28.58
2019-06-07T12:59:44.049Z,28.61
2019-06-07T13:00:48.620Z,28.64
2019-06-07T13:01:53.386Z,28.67
2019-06-07T13:02:57.634Z,28.69
2019-06-07T13:04:02.483Z,28.71
2019-06-07T13:05:07.615Z,28.75
2019-06-07T13:06:12.469Z,28.79
2019-06-07T13:07:17.958Z,28.82
2019-06-07T13:08:23.932Z,28.84
2019-06-07T13:09:29.140Z,28.88
2019-06-07T13:10:33.968Z,28.89
2019-06-07T13:11:38.193Z,28.90
2019-06-07T13:12:44.096Z,28.86
2019-06-07T13:13:48.353Z,28.79
2019-06-07T13:14:53.286Z,28.80
2019-06-07T13:15:57.677Z,28.80
2019-06-07T13:17:02.899Z,28.77
2019-06-07T13:18:07.087Z,28.59
2019-06-07T13:19:11.849Z,28.59
2019-06-07T13:20:16.210Z,28.61
2019-06-07T13:21:22.290Z,28.63
2019-06-07T13:22:26.661Z,28.67
2019-06-07T13:23:32.006Z,28.68
2019-06-07T13:24:36.229Z,28.72
2019-06-07T13:25:46.618Z,28.76
2019-06-07T13:26:48.889Z,28.74
2019-06-07T13:27:53.665Z,28.69
2019-06-07T13:28:58.359Z,28.59
2019-06-07T13:30:09.967Z,28.56
2019-06-07T13:31:09.198Z,28.51
2019-06-07T13:32:13.986Z,28.47
2019-06-07T13:33:19.043Z,28.42
2019-06-07T13:34:24.332Z,28.37
2019-06-07T13:35:29.619Z,28.28
2019-06-07T13:36:34.562Z,28.22
2019-06-07T13:37:38.737Z,28.21
2019-06-07T13:38:43.515Z,28.18
2019-06-07T13:39:47.681Z,28.17
2019-06-07T13:40:52.450Z,28.17
2019-06-07T13:41:56.657Z,28.15
2019-06-07T13:43:01.422Z,28.12
2019-06-07T13:44:05.939Z,28.14
2019-06-07T13:45:10.770Z,28.12
2019-06-07T13:46:14.952Z,28.12
2019-06-07T13:47:21.091Z,28.12
2019-06-07T13:48:25.440Z,28.13
2019-06-07T13:49:30.203Z,28.10
2019-06-07T13:50:34.454Z,28.02
2019-06-07T13:51:39.238Z,27.97
2019-06-07T13:52:45.156Z,27.95
2019-06-07T13:53:49.914Z,28.01
2019-06-07T13:54:54.092Z,28.05
2019-06-07T13:55:58.871Z,28.06
2019-06-07T13:57:04.363Z,28.07
2019-06-07T13:58:09.307Z,28.02
2019-06-07T13:59:13.490Z,27.98
2019-06-07T14:00:19.033Z,27.96
2019-06-07T14:01:24.626Z,28.01
2019-06-07T14:02:29.918Z,28.06
2019-06-07T14:03:34.266Z,28.09
2019-06-07T14:04:39.081Z,28.15
2019-06-07T14:05:43.263Z,28.19
2019-06-07T14:06:48.119Z,28.18
2019-06-07T14:07:52.331Z,28.16
2019-06-07T14:08:57.111Z,28.11
2019-06-07T14:10:01.429Z,28.12